KLM807 RPLL-RCTP
Flight info
| Callsign | KLM807 |
|---|---|
| Flight time | 1h 39m |
| Altitude | 38000 |
| Route | ALPAS2V ALPAS M646 SANRO/N0470F390 M646 POTIB Q14 TNN TNN1A |
| Aircraft | B772/H-SDE2E3FGHIJ5LORVWXY/LB1D1 |
Departure
| Time | 2026-05-04 08:28 |
|---|---|
| Airport | Ninoy Aquino International Airport (RPLL) |
Arrival
| Time | 2026-05-04 10:08 |
|---|---|
| Airport | Taiwan Taoyuan International Airport (RCTP) |
| Time | Latitude | Longitude | Altitude | Speed | Heading |
|---|---|---|---|---|---|
| 2026-05-04 08:03 | 14.51614 | 121.01564 | 64 ft | 0 kts | 46° |
| 2026-05-04 08:20 | 14.51605 | 121.01554 | 64 ft | 2 kts | 46° |
| 2026-05-04 08:20 | 14.51598 | 121.01547 | 64 ft | 1 kts | 46° |
| 2026-05-04 08:20 | 14.51587 | 121.01537 | 64 ft | 2 kts | 32° |
| 2026-05-04 08:20 | 14.51574 | 121.01530 | 64 ft | 2 kts | 19° |
| 2026-05-04 08:21 | 14.51559 | 121.01526 | 64 ft | 2 kts | 7° |
| 2026-05-04 08:21 | 14.51544 | 121.01525 | 64 ft | 2 kts | 354° |
| 2026-05-04 08:21 | 14.51529 | 121.01528 | 65 ft | 2 kts | 341° |
| 2026-05-04 08:21 | 14.51516 | 121.01534 | 65 ft | 2 kts | 329° |
| 2026-05-04 08:22 | 14.51504 | 121.01543 | 65 ft | 1 kts | 316° |
| 2026-05-04 08:22 | 14.51501 | 121.01546 | 65 ft | 0 kts | 315° |
| 2026-05-04 08:24 | 14.51505 | 121.01541 | 65 ft | 2 kts | 315° |
| 2026-05-04 08:24 | 14.51525 | 121.01521 | 65 ft | 5 kts | 315° |
| 2026-05-04 08:24 | 14.51563 | 121.01481 | 64 ft | 10 kts | 315° |
| 2026-05-04 08:24 | 14.51626 | 121.01415 | 60 ft | 15 kts | 315° |
| 2026-05-04 08:25 | 14.51717 | 121.01322 | 56 ft | 20 kts | 315° |
| 2026-05-04 08:25 | 14.51824 | 121.01211 | 53 ft | 23 kts | 314° |
| 2026-05-04 08:25 | 14.51947 | 121.01083 | 50 ft | 26 kts | 314° |
| 2026-05-04 08:25 | 14.52078 | 121.00945 | 47 ft | 26 kts | 314° |
| 2026-05-04 08:26 | 14.52213 | 121.00809 | 42 ft | 28 kts | 316° |
| 2026-05-04 08:27 | 14.51854 | 121.00936 | 49 ft | 114 kts | 136° |
| 2026-05-04 08:28 | 14.51176 | 121.01635 | 244 ft | 150 kts | 136° |
| 2026-05-04 08:28 | 14.50422 | 121.02371 | 781 ft | 157 kts | 134° |
| 2026-05-04 08:28 | 14.49666 | 121.03164 | 1457 ft | 156 kts | 131° |
| 2026-05-04 08:28 | 14.48857 | 121.04027 | 1678 ft | 177 kts | 130° |
| 2026-05-04 08:29 | 14.47946 | 121.04974 | 1965 ft | 194 kts | 131° |
| 2026-05-04 08:29 | 14.46950 | 121.06001 | 2311 ft | 208 kts | 131° |
| 2026-05-04 08:29 | 14.45946 | 121.07042 | 3057 ft | 204 kts | 131° |
| 2026-05-04 08:31 | 14.37702 | 121.02939 | 7105 ft | 241 kts | 234° |
| 2026-05-04 08:33 | 14.43106 | 120.94014 | 10732 ft | 248 kts | 346° |
| 2026-05-04 08:33 | 14.44836 | 120.93501 | 10975 ft | 268 kts | 347° |
| 2026-05-04 08:35 | 14.59486 | 120.91734 | 14283 ft | 352 kts | 6° |
| 2026-05-04 08:35 | 14.61997 | 120.91943 | 14696 ft | 368 kts | 6° |
| 2026-05-04 08:35 | 14.64585 | 120.92156 | 15099 ft | 384 kts | 6° |
| 2026-05-04 08:35 | 14.67331 | 120.92381 | 15531 ft | 399 kts | 5° |
| 2026-05-04 08:37 | 14.84609 | 120.93736 | 19553 ft | 430 kts | 0° |
| 2026-05-04 08:37 | 14.87651 | 120.93447 | 20187 ft | 436 kts | 350° |
| 2026-05-04 08:37 | 14.90612 | 120.92648 | 20784 ft | 441 kts | 344° |
| 2026-05-04 08:38 | 14.93585 | 120.91662 | 21350 ft | 446 kts | 343° |
| 2026-05-04 08:38 | 14.96550 | 120.90664 | 21957 ft | 449 kts | 343° |
| 2026-05-04 08:38 | 14.99551 | 120.89655 | 22525 ft | 453 kts | 343° |
| 2026-05-04 08:40 | 15.21120 | 120.82386 | 26693 ft | 473 kts | 341° |
| 2026-05-04 08:40 | 15.24286 | 120.81317 | 27257 ft | 476 kts | 341° |
| 2026-05-04 08:40 | 15.27456 | 120.80249 | 27793 ft | 480 kts | 341° |
| 2026-05-04 08:41 | 15.30634 | 120.79179 | 28311 ft | 483 kts | 341° |
| 2026-05-04 08:41 | 15.33836 | 120.78101 | 28841 ft | 486 kts | 341° |
| 2026-05-04 08:41 | 15.37063 | 120.77015 | 29401 ft | 488 kts | 341° |
| 2026-05-04 08:41 | 15.40328 | 120.75916 | 30063 ft | 488 kts | 340° |
| 2026-05-04 08:42 | 15.43584 | 120.74820 | 30865 ft | 484 kts | 340° |
| 2026-05-04 08:42 | 15.46780 | 120.73745 | 31682 ft | 480 kts | 340° |
| 2026-05-04 08:42 | 15.49948 | 120.72689 | 32402 ft | 477 kts | 341° |
| 2026-05-04 08:42 | 15.53152 | 120.71729 | 33102 ft | 476 kts | 342° |
| 2026-05-04 08:43 | 15.56357 | 120.70789 | 33794 ft | 475 kts | 342° |
| 2026-05-04 08:43 | 15.58977 | 120.70021 | 34353 ft | 474 kts | 341° |
| 2026-05-04 08:43 | 15.62158 | 120.69084 | 35043 ft | 473 kts | 341° |
| 2026-05-04 08:43 | 15.65330 | 120.68148 | 35715 ft | 471 kts | 341° |
| 2026-05-04 08:44 | 15.68482 | 120.67216 | 36318 ft | 470 kts | 341° |
| 2026-05-04 08:44 | 15.71642 | 120.66276 | 36769 ft | 471 kts | 341° |
| 2026-05-04 08:46 | 15.93866 | 120.59615 | 37841 ft | 469 kts | 341° |
| 2026-05-04 08:46 | 16.00206 | 120.57711 | 37847 ft | 469 kts | 341° |
| 2026-05-04 08:47 | 16.06520 | 120.55814 | 37865 ft | 469 kts | 341° |
| 2026-05-04 08:47 | 16.12819 | 120.53919 | 37872 ft | 468 kts | 341° |
| 2026-05-04 08:48 | 16.19076 | 120.52036 | 37886 ft | 467 kts | 341° |
| 2026-05-04 08:48 | 16.25307 | 120.50159 | 37897 ft | 467 kts | 341° |
| 2026-05-04 08:49 | 16.31614 | 120.48259 | 37909 ft | 465 kts | 341° |
| 2026-05-04 08:50 | 16.53417 | 120.41679 | 37955 ft | 465 kts | 341° |
| 2026-05-04 08:51 | 16.59669 | 120.39789 | 37931 ft | 463 kts | 341° |
| 2026-05-04 08:51 | 16.65895 | 120.37906 | 37925 ft | 463 kts | 341° |
| 2026-05-04 08:52 | 16.72205 | 120.36308 | 37905 ft | 466 kts | 351° |
| 2026-05-04 08:52 | 16.78749 | 120.36488 | 37906 ft | 474 kts | 4° |
| 2026-05-04 08:53 | 16.82035 | 120.36871 | 38047 ft | 479 kts | 4° |
| 2026-05-04 08:54 | 17.05106 | 120.39589 | 38915 ft | 474 kts | 4° |
| 2026-05-04 08:55 | 17.11712 | 120.40366 | 38900 ft | 474 kts | 4° |
| 2026-05-04 08:55 | 17.18316 | 120.41142 | 38890 ft | 473 kts | 4° |
| 2026-05-04 09:01 | 17.87306 | 120.49281 | 38892 ft | 473 kts | 4° |
| 2026-05-04 09:01 | 17.93873 | 120.50059 | 38891 ft | 474 kts | 4° |
| 2026-05-04 09:02 | 18.00461 | 120.50839 | 38880 ft | 473 kts | 4° |
| 2026-05-04 09:02 | 18.07022 | 120.51617 | 38869 ft | 472 kts | 4° |
| 2026-05-04 09:03 | 18.13590 | 120.52396 | 38874 ft | 475 kts | 4° |
| 2026-05-04 09:03 | 18.20179 | 120.53143 | 38875 ft | 472 kts | 1° |
| 2026-05-04 09:04 | 18.26781 | 120.53653 | 38882 ft | 473 kts | 1° |
| 2026-05-04 09:04 | 18.33412 | 120.54167 | 38882 ft | 473 kts | 1° |
| 2026-05-04 09:05 | 18.40007 | 120.54687 | 38885 ft | 473 kts | 1° |
| 2026-05-04 09:05 | 18.46635 | 120.55213 | 38889 ft | 474 kts | 1° |
| 2026-05-04 09:06 | 18.53251 | 120.55741 | 38891 ft | 474 kts | 1° |
| 2026-05-04 09:08 | 18.79696 | 120.57863 | 38883 ft | 476 kts | 1° |
| 2026-05-04 09:08 | 18.86306 | 120.58395 | 38883 ft | 475 kts | 1° |
| 2026-05-04 09:09 | 18.92919 | 120.58927 | 38884 ft | 476 kts | 1° |
| 2026-05-04 09:09 | 18.99572 | 120.59463 | 38889 ft | 476 kts | 1° |
| 2026-05-04 09:10 | 19.06283 | 120.60005 | 38886 ft | 475 kts | 1° |
| 2026-05-04 09:10 | 19.12927 | 120.60541 | 38889 ft | 477 kts | 1° |
| 2026-05-04 09:11 | 19.19576 | 120.61079 | 38893 ft | 476 kts | 1° |
| 2026-05-04 09:11 | 19.26238 | 120.61618 | 38897 ft | 477 kts | 1° |
| 2026-05-04 09:12 | 19.32909 | 120.62158 | 38893 ft | 476 kts | 1° |
| 2026-05-04 09:14 | 19.59465 | 120.64313 | 38916 ft | 477 kts | 1° |
| 2026-05-04 09:14 | 19.66070 | 120.64850 | 38917 ft | 477 kts | 1° |
| 2026-05-04 09:15 | 19.72709 | 120.65390 | 38917 ft | 477 kts | 1° |
| 2026-05-04 09:15 | 19.79298 | 120.65926 | 38919 ft | 477 kts | 1° |
| 2026-05-04 09:17 | 20.09292 | 120.68374 | 38930 ft | 478 kts | 1° |
| 2026-05-04 09:18 | 20.16041 | 120.68926 | 38930 ft | 478 kts | 1° |
| 2026-05-04 09:18 | 20.22694 | 120.69470 | 38931 ft | 478 kts | 1° |
| 2026-05-04 09:19 | 20.29419 | 120.70021 | 38932 ft | 478 kts | 1° |
| 2026-05-04 09:19 | 20.36130 | 120.70572 | 38935 ft | 478 kts | 1° |
| 2026-05-04 09:20 | 20.42848 | 120.71123 | 38935 ft | 478 kts | 1° |
| 2026-05-04 09:20 | 20.49520 | 120.71671 | 38937 ft | 479 kts | 1° |
| 2026-05-04 09:21 | 20.56196 | 120.72220 | 38939 ft | 479 kts | 0° |
| 2026-05-04 09:21 | 20.62821 | 120.72765 | 38939 ft | 478 kts | 0° |
| 2026-05-04 09:22 | 20.69489 | 120.73315 | 38942 ft | 479 kts | 0° |
| 2026-05-04 09:22 | 20.76156 | 120.73864 | 38944 ft | 479 kts | 0° |
| 2026-05-04 09:23 | 20.82807 | 120.74412 | 38947 ft | 479 kts | 0° |
| 2026-05-04 09:23 | 20.89469 | 120.74963 | 38948 ft | 479 kts | 0° |
| 2026-05-04 09:25 | 21.12313 | 120.72702 | 38949 ft | 468 kts | 342° |
| 2026-05-04 09:25 | 21.15478 | 120.71893 | 38953 ft | 469 kts | 342° |
| 2026-05-04 09:26 | 21.21914 | 120.70248 | 38954 ft | 469 kts | 342° |
| 2026-05-04 09:26 | 21.28285 | 120.68619 | 38969 ft | 469 kts | 342° |
| 2026-05-04 09:27 | 21.34653 | 120.66991 | 38972 ft | 469 kts | 342° |
| 2026-05-04 09:27 | 21.41107 | 120.65339 | 38963 ft | 469 kts | 342° |
| 2026-05-04 09:28 | 21.47486 | 120.63705 | 38966 ft | 469 kts | 342° |
| 2026-05-04 09:28 | 21.53877 | 120.62066 | 38971 ft | 469 kts | 342° |
| 2026-05-04 09:29 | 21.60253 | 120.60429 | 38980 ft | 469 kts | 341° |
| 2026-05-04 09:29 | 21.66619 | 120.58790 | 38977 ft | 469 kts | 341° |
| 2026-05-04 09:30 | 21.72968 | 120.57154 | 38973 ft | 470 kts | 341° |
| 2026-05-04 09:30 | 21.79330 | 120.55514 | 38982 ft | 469 kts | 341° |
| 2026-05-04 09:31 | 21.85695 | 120.53875 | 38990 ft | 469 kts | 341° |
| 2026-05-04 09:31 | 21.92030 | 120.52242 | 38982 ft | 470 kts | 341° |
| 2026-05-04 09:32 | 21.98388 | 120.50602 | 38984 ft | 469 kts | 341° |
| 2026-05-04 09:34 | 22.23842 | 120.44019 | 38985 ft | 469 kts | 341° |
| 2026-05-04 09:34 | 22.30202 | 120.42371 | 38985 ft | 469 kts | 341° |
| 2026-05-04 09:35 | 22.36545 | 120.40725 | 38985 ft | 468 kts | 341° |
| 2026-05-04 09:35 | 22.42933 | 120.39066 | 38980 ft | 469 kts | 341° |
| 2026-05-04 09:37 | 22.68239 | 120.32478 | 38997 ft | 467 kts | 340° |
| 2026-05-04 09:38 | 22.74574 | 120.30826 | 38999 ft | 465 kts | 340° |
| 2026-05-04 09:38 | 22.80864 | 120.29182 | 38992 ft | 467 kts | 340° |
| 2026-05-04 09:39 | 22.87196 | 120.27527 | 39000 ft | 465 kts | 340° |
| 2026-05-04 09:39 | 22.93557 | 120.25861 | 39008 ft | 465 kts | 339° |
| 2026-05-04 09:40 | 22.99859 | 120.24210 | 39008 ft | 464 kts | 339° |
| 2026-05-04 09:40 | 23.06165 | 120.22555 | 39004 ft | 465 kts | 339° |
| 2026-05-04 09:42 | 23.32565 | 120.22880 | 37184 ft | 481 kts | 359° |
| 2026-05-04 09:43 | 23.35891 | 120.23278 | 36301 ft | 481 kts | 359° |
| 2026-05-04 09:43 | 23.39229 | 120.23677 | 35437 ft | 482 kts | 359° |
| 2026-05-04 09:43 | 23.42559 | 120.24076 | 34558 ft | 483 kts | 359° |
| 2026-05-04 09:43 | 23.45899 | 120.24475 | 33662 ft | 484 kts | 359° |
| 2026-05-04 09:44 | 23.49264 | 120.24878 | 32753 ft | 485 kts | 359° |
| 2026-05-04 09:44 | 23.52635 | 120.25281 | 31889 ft | 487 kts | 359° |
| 2026-05-04 09:44 | 23.56043 | 120.25688 | 30978 ft | 489 kts | 359° |
| 2026-05-04 09:46 | 23.79089 | 120.30389 | 26873 ft | 490 kts | 12° |
| 2026-05-04 09:46 | 23.82326 | 120.31513 | 26269 ft | 486 kts | 12° |
| 2026-05-04 09:46 | 23.85533 | 120.32626 | 25666 ft | 482 kts | 12° |
| 2026-05-04 09:47 | 23.88745 | 120.33740 | 25046 ft | 478 kts | 12° |
| 2026-05-04 09:47 | 23.91906 | 120.34837 | 24438 ft | 474 kts | 12° |
| 2026-05-04 09:49 | 24.13336 | 120.42278 | 20145 ft | 451 kts | 13° |
| 2026-05-04 09:49 | 24.16332 | 120.43320 | 19528 ft | 448 kts | 12° |
| 2026-05-04 09:49 | 24.19286 | 120.44347 | 18910 ft | 445 kts | 13° |
| 2026-05-04 09:51 | 24.36715 | 120.50421 | 15142 ft | 426 kts | 13° |
| 2026-05-04 09:51 | 24.38324 | 120.50983 | 14793 ft | 424 kts | 13° |
| 2026-05-04 09:51 | 24.41122 | 120.51960 | 14190 ft | 421 kts | 13° |
| 2026-05-04 09:51 | 24.43901 | 120.52930 | 13556 ft | 417 kts | 13° |
| 2026-05-04 09:52 | 24.46696 | 120.53908 | 12942 ft | 414 kts | 13° |
| 2026-05-04 09:52 | 24.49420 | 120.54860 | 12343 ft | 410 kts | 13° |
| 2026-05-04 09:52 | 24.52121 | 120.55804 | 11678 ft | 407 kts | 14° |
| 2026-05-04 09:52 | 24.54870 | 120.56767 | 11061 ft | 403 kts | 14° |
| 2026-05-04 09:53 | 24.57520 | 120.57695 | 10668 ft | 389 kts | 14° |
| 2026-05-04 09:53 | 24.60018 | 120.58574 | 10619 ft | 368 kts | 13° |
| 2026-05-04 09:53 | 24.62443 | 120.59425 | 10481 ft | 351 kts | 13° |
| 2026-05-04 09:53 | 24.64783 | 120.60246 | 10349 ft | 337 kts | 13° |
| 2026-05-04 09:54 | 24.66937 | 120.61138 | 10196 ft | 329 kts | 25° |
| 2026-05-04 09:54 | 24.68798 | 120.62585 | 10040 ft | 320 kts | 36° |
| 2026-05-04 09:54 | 24.70477 | 120.64165 | 9815 ft | 315 kts | 38° |
| 2026-05-04 09:54 | 24.72123 | 120.65774 | 9422 ft | 314 kts | 39° |
| 2026-05-04 09:55 | 24.73758 | 120.67382 | 9082 ft | 313 kts | 39° |
| 2026-05-04 09:55 | 24.75373 | 120.68972 | 8750 ft | 311 kts | 39° |
| 2026-05-04 09:55 | 24.76997 | 120.70569 | 8416 ft | 309 kts | 39° |
| 2026-05-04 09:55 | 24.78593 | 120.72140 | 8047 ft | 306 kts | 40° |
| 2026-05-04 09:56 | 24.80171 | 120.73692 | 7708 ft | 303 kts | 40° |
| 2026-05-04 09:56 | 24.81736 | 120.75233 | 7413 ft | 300 kts | 40° |
| 2026-05-04 09:56 | 24.83297 | 120.76769 | 7058 ft | 299 kts | 40° |
| 2026-05-04 09:56 | 24.84828 | 120.78278 | 6759 ft | 293 kts | 40° |
| 2026-05-04 09:57 | 24.86357 | 120.79784 | 6440 ft | 287 kts | 40° |
| 2026-05-04 09:57 | 24.87853 | 120.81259 | 6120 ft | 282 kts | 41° |
| 2026-05-04 09:57 | 24.89310 | 120.82696 | 5823 ft | 277 kts | 41° |
| 2026-05-04 09:57 | 24.90712 | 120.84158 | 5506 ft | 272 kts | 51° |
| 2026-05-04 09:58 | 24.91515 | 120.85996 | 5206 ft | 266 kts | 78° |
| 2026-05-04 09:58 | 24.91703 | 120.87997 | 4927 ft | 260 kts | 89° |
| 2026-05-04 09:58 | 24.91681 | 120.89962 | 4682 ft | 255 kts | 91° |
| 2026-05-04 10:00 | 24.92061 | 121.02200 | 3892 ft | 202 kts | 54° |
| 2026-05-04 10:00 | 24.92930 | 121.03384 | 3796 ft | 196 kts | 51° |
| 2026-05-04 10:02 | 24.98359 | 121.10379 | 2716 ft | 140 kts | 51° |
| 2026-05-04 10:04 | 25.02674 | 121.15792 | 1479 ft | 123 kts | 51° |
| 2026-05-04 10:04 | 25.03213 | 121.16470 | 1331 ft | 109 kts | 51° |
| 2026-05-04 10:04 | 25.03713 | 121.17102 | 1186 ft | 111 kts | 51° |
| 2026-05-04 10:04 | 25.04221 | 121.17743 | 1055 ft | 111 kts | 51° |
| 2026-05-04 10:05 | 25.04727 | 121.18379 | 901 ft | 111 kts | 51° |
| 2026-05-04 10:05 | 25.05243 | 121.19025 | 715 ft | 112 kts | 49° |
| 2026-05-04 10:05 | 25.05758 | 121.19662 | 572 ft | 114 kts | 51° |
| 2026-05-04 10:05 | 25.06285 | 121.20328 | 440 ft | 114 kts | 50° |
| 2026-05-04 10:06 | 25.06811 | 121.20986 | 293 ft | 115 kts | 50° |
| 2026-05-04 10:06 | 25.07334 | 121.21653 | 148 ft | 115 kts | 50° |
| 2026-05-04 10:06 | 25.07811 | 121.22261 | 122 ft | 87 kts | 49° |
| 2026-05-04 10:08 | 25.08442 | 121.23199 | 122 ft | 7 kts | 82° |
| 2026-05-04 10:08 | 25.08449 | 121.23264 | 122 ft | 9 kts | 83° |
| 2026-05-04 10:08 | 25.08451 | 121.23285 | 122 ft | 2 kts | 83° |
| 2026-05-04 10:08 | 25.08454 | 121.23308 | 122 ft | 1 kts | 83° |
| 2026-05-04 10:09 | 25.08454 | 121.23309 | 122 ft | 0 kts | 83° |
| 2026-05-04 10:09 | 25.08450 | 121.23326 | 122 ft | 2 kts | 130° |
| 2026-05-04 10:09 | 25.08427 | 121.23329 | 122 ft | 5 kts | 192° |
| 2026-05-04 10:09 | 25.08379 | 121.23302 | 122 ft | 9 kts | 220° |
| 2026-05-04 10:10 | 25.08324 | 121.23238 | 122 ft | 13 kts | 227° |
| 2026-05-04 10:10 | 25.08257 | 121.23153 | 122 ft | 16 kts | 230° |
| 2026-05-04 10:10 | 25.08174 | 121.23046 | 122 ft | 19 kts | 229° |
| 2026-05-04 10:10 | 25.08089 | 121.22941 | 122 ft | 11 kts | 227° |
| 2026-05-04 10:11 | 25.08016 | 121.22930 | 122 ft | 13 kts | 143° |
| 2026-05-04 10:11 | 25.07943 | 121.22916 | 122 ft | 13 kts | 225° |
| 2026-05-04 10:11 | 25.07900 | 121.22866 | 122 ft | 2 kts | 229° |
| 2026-05-04 10:11 | 25.07879 | 121.22841 | 122 ft | 4 kts | 215° |
| 2026-05-04 10:12 | 25.07849 | 121.22860 | 122 ft | 7 kts | 138° |
| 2026-05-04 10:12 | 25.07806 | 121.22900 | 122 ft | 3 kts | 139° |
| 2026-05-04 10:12 | 25.07799 | 121.22907 | 122 ft | 0 kts | 139° |